createdAt,value
2023-01-11T00:01:29.939Z,100.00
2023-01-11T00:11:32.944Z,100.00
2023-01-11T00:21:37.322Z,100.00
2023-01-11T00:31:40.335Z,100.00
2023-01-11T00:42:02.311Z,100.00
2023-01-11T00:52:09.089Z,100.00
2023-01-11T01:02:14.243Z,100.00
2023-01-11T01:12:37.586Z,100.00
2023-01-11T01:22:42.155Z,100.00
2023-01-11T01:32:45.188Z,100.00
2023-01-11T01:42:54.404Z,100.00
2023-01-11T01:53:03.397Z,100.00
2023-01-11T02:03:09.024Z,100.00
2023-01-11T02:13:14.474Z,100.00
2023-01-11T02:23:50.871Z,100.00
2023-01-11T02:34:05.507Z,100.00
2023-01-11T02:44:31.802Z,100.00
2023-01-11T02:54:39.011Z,100.00
2023-01-11T03:04:42.030Z,100.00
2023-01-11T03:14:58.166Z,100.00
2023-01-11T03:25:14.989Z,100.00
2023-01-11T03:35:27.825Z,100.00
2023-01-11T03:45:34.494Z,100.00
2023-01-11T03:55:41.896Z,100.00
2023-01-11T04:05:49.329Z,100.00
2023-01-11T04:15:55.145Z,100.00
2023-01-11T04:25:58.063Z,100.00
2023-01-11T04:36:05.849Z,100.00
2023-01-11T04:46:10.920Z,100.00
2023-01-11T04:56:16.070Z,100.00
2023-01-11T05:06:22.414Z,100.00
2023-01-11T05:16:27.067Z,100.00
2023-01-11T05:26:34.505Z,100.00
2023-01-11T05:36:39.132Z,100.00
2023-01-11T05:46:44.133Z,100.00
2023-01-11T05:56:48.439Z,100.00
2023-01-11T06:06:51.497Z,100.00
2023-01-11T06:16:56.885Z,100.00
2023-01-11T06:26:59.898Z,100.00
2023-01-11T06:37:04.272Z,100.00
2023-01-11T06:47:07.229Z,100.00
2023-01-11T06:57:11.852Z,100.00
2023-01-11T07:07:14.760Z,100.00
2023-01-11T07:17:19.059Z,100.00
2023-01-11T07:27:22.032Z,100.00
2023-01-11T07:37:28.989Z,100.00
2023-01-11T07:47:32.608Z,100.00
2023-01-11T07:57:37.302Z,100.00
2023-01-11T08:07:42.999Z,100.00
2023-01-11T08:17:47.401Z,100.00
2023-01-11T08:27:50.534Z,100.00
2023-01-11T08:37:54.911Z,100.00
2023-01-11T08:48:00.218Z,100.00
2023-01-11T08:58:04.721Z,100.00
2023-01-11T09:08:09.460Z,100.00
2023-01-11T09:18:13.883Z,100.00
2023-01-11T09:28:16.864Z,100.00
2023-01-11T09:38:26.665Z,100.00
2023-01-11T09:48:38.859Z,100.00
2023-01-11T09:58:58.846Z,100.00
2023-01-11T10:20:15.769Z,100.00
2023-01-11T10:30:41.776Z,100.00
2023-01-11T10:41:08.413Z,100.00
2023-01-11T10:51:40.131Z,99.76
2023-01-11T11:01:55.480Z,98.38
2023-01-11T11:12:01.915Z,96.83
2023-01-11T11:22:06.561Z,94.79
2023-01-11T11:32:20.043Z,94.33
2023-01-11T11:42:25.175Z,92.66
2023-01-11T11:52:28.206Z,92.65
2023-01-11T12:02:36.663Z,90.09
2023-01-11T12:12:50.870Z,87.51
2023-01-11T12:23:12.594Z,85.63
2023-01-11T12:33:35.927Z,84.95
2023-01-11T12:43:54.412Z,83.91
2023-01-11T12:54:23.802Z,83.91
2023-01-11T13:05:02.587Z,82.64
2023-01-11T13:15:18.236Z,83.25
2023-01-11T13:25:25.996Z,81.60
2023-01-11T13:35:40.436Z,81.61
2023-01-11T13:45:51.553Z,80.96
2023-01-11T13:56:16.870Z,79.64
2023-01-11T14:06:45.721Z,80.20
2023-01-11T14:17:12.044Z,79.84
2023-01-11T14:27:51.895Z,81.19
2023-01-11T14:38:22.924Z,80.17
2023-01-11T14:48:34.724Z,80.00
2023-01-11T14:58:37.868Z,81.05
2023-01-11T15:08:46.209Z,82.85
2023-01-11T15:18:49.223Z,82.13
2023-01-11T15:28:56.039Z,82.99
2023-01-11T15:39:04.097Z,82.94
2023-01-11T15:49:45.688Z,82.43
2023-01-11T16:00:17.954Z,82.54
2023-01-11T16:10:40.291Z,83.39
2023-01-11T16:20:57.453Z,83.51
2023-01-11T16:31:03.993Z,83.77
2023-01-11T16:41:13.113Z,84.55
2023-01-11T16:51:17.096Z,85.64
2023-01-11T17:01:21.483Z,85.32
2023-01-11T17:11:36.468Z,85.72
2023-01-11T17:21:42.074Z,86.29
2023-01-11T17:31:46.614Z,87.42
2023-01-11T17:42:09.382Z,88.78
2023-01-11T17:52:20.597Z,89.48
2023-01-11T18:02:25.111Z,89.41
2023-01-11T18:12:31.113Z,88.15
2023-01-11T18:22:40.432Z,87.50
2023-01-11T18:32:44.536Z,87.19
2023-01-11T18:42:53.355Z,85.68
2023-01-11T18:52:56.444Z,84.04
2023-01-11T19:03:01.702Z,83.66
2023-01-11T19:13:04.865Z,84.37
2023-01-11T19:23:09.563Z,84.13
2023-01-11T19:33:12.553Z,83.89
2023-01-11T19:43:16.944Z,83.10
2023-01-11T19:53:19.905Z,85.92
2023-01-11T20:03:24.598Z,89.85
2023-01-11T20:13:27.917Z,93.05
2023-01-11T20:23:32.724Z,95.22
2023-01-11T20:33:36.060Z,95.67
2023-01-11T20:43:41.176Z,97.58
2023-01-11T20:53:44.259Z,98.40
2023-01-11T21:03:48.637Z,100.00
2023-01-11T21:13:53.816Z,100.00
2023-01-11T21:24:00.178Z,99.53
2023-01-11T21:34:03.819Z,98.80
2023-01-11T21:44:08.911Z,95.63
2023-01-11T21:54:19.061Z,96.21
2023-01-11T22:04:23.661Z,96.73
2023-01-11T22:14:27.060Z,98.22
2023-01-11T22:24:31.486Z,98.08
2023-01-11T22:34:34.644Z,97.99
2023-01-11T22:44:38.991Z,96.46
2023-01-11T22:54:42.563Z,98.54
2023-01-11T23:04:46.924Z,100.00
2023-01-11T23:14:49.889Z,100.00
2023-01-11T23:24:54.317Z,100.00
2023-01-11T23:34:57.261Z,100.00
2023-01-11T23:45:01.631Z,100.00
2023-01-11T23:55:05.041Z,100.00
